CMB849 Details

Departure: Diego Garcia (FJDG)
Arrival: Paya Lebar Airport (WSAP) at N/A
Route: NKW R212 PIBED N633 PKU R469 ASUNA
Notes: USTRANSCOM CONTRACT FLIGHT


Current Weather Information
FJDG 231255Z 10014KT 9999 FEW025 FEW035 BKN230 30/24 A2982 RMK SLP095 T02990239
WSAP 231300Z 02001KT 9999 FEW016 SCT150 27/26 Q1009